createdAt,value
2023-01-21T00:01:14.452Z,3.77
2023-01-21T00:03:42.705Z,3.31
2023-01-21T00:06:11.290Z,2.99
2023-01-21T00:08:39.080Z,3.15
2023-01-21T00:11:15.052Z,4.28
2023-01-21T00:13:44.086Z,5.59
2023-01-21T00:16:13.267Z,6.16
2023-01-21T00:18:41.663Z,5.57
2023-01-21T00:21:09.633Z,4.81
2023-01-21T00:23:37.430Z,4.18
2023-01-21T00:26:06.338Z,3.69
2023-01-21T00:28:35.497Z,3.31
2023-01-21T00:31:05.698Z,3.03
2023-01-21T00:33:35.071Z,2.87
2023-01-21T00:36:07.297Z,3.38
2023-01-21T00:38:35.264Z,4.78
2023-01-21T00:41:11.172Z,6.10
2023-01-21T00:43:40.844Z,6.81
2023-01-21T00:46:09.287Z,6.10
2023-01-21T00:48:37.748Z,5.20
2023-01-21T00:51:05.947Z,4.49
2023-01-21T00:53:36.827Z,3.99
2023-01-21T00:56:07.729Z,3.57
2023-01-21T00:58:36.153Z,3.22
2023-01-21T01:01:16.391Z,3.37
2023-01-21T01:03:45.346Z,4.68
2023-01-21T01:06:19.118Z,5.58
2023-01-21T01:08:47.472Z,5.79
2023-01-21T01:11:16.075Z,5.16
2023-01-21T01:13:44.437Z,4.37
2023-01-21T01:16:14.886Z,3.74
2023-01-21T01:18:43.694Z,3.26
2023-01-21T01:21:17.234Z,2.93
2023-01-21T01:23:45.514Z,2.63
2023-01-21T01:26:15.704Z,2.85
2023-01-21T01:28:43.683Z,4.00
2023-01-21T01:31:14.699Z,5.33
2023-01-21T01:33:42.921Z,5.57
2023-01-21T01:36:14.477Z,4.70
2023-01-21T01:38:42.757Z,4.02
2023-01-21T01:41:16.674Z,3.50
2023-01-21T01:44:06.089Z,3.07
2023-01-21T01:46:36.176Z,3.13
2023-01-21T01:49:15.716Z,4.58
2023-01-21T01:51:47.963Z,5.94
2023-01-21T01:54:17.848Z,6.45
2023-01-21T01:56:50.678Z,5.61
2023-01-21T01:59:19.393Z,4.66
2023-01-21T02:01:47.223Z,3.89
2023-01-21T02:04:20.188Z,3.42
2023-01-21T02:06:49.065Z,3.05
2023-01-21T02:09:16.817Z,3.36
2023-01-21T02:11:44.730Z,4.85
2023-01-21T02:14:12.675Z,5.80
2023-01-21T02:17:03.503Z,5.34
2023-01-21T02:19:42.870Z,4.38
2023-01-21T02:22:45.449Z,3.66
2023-01-21T02:25:37.905Z,3.17
2023-01-21T02:28:24.426Z,4.07
2023-01-21T02:31:14.219Z,5.45
2023-01-21T02:33:51.359Z,5.97
2023-01-21T02:36:26.488Z,5.04
2023-01-21T02:39:12.986Z,4.07
2023-01-21T02:41:55.758Z,3.35
2023-01-21T02:44:39.141Z,3.32
2023-01-21T02:47:09.574Z,4.67
2023-01-21T02:49:43.243Z,5.75
2023-01-21T02:52:19.469Z,6.13
2023-01-21T02:54:51.141Z,5.25
2023-01-21T02:57:48.991Z,4.32
2023-01-21T03:00:52.307Z,3.58
2023-01-21T03:03:27.191Z,3.41
2023-01-21T03:06:07.300Z,4.62
2023-01-21T03:08:42.201Z,5.81
2023-01-21T03:11:15.773Z,6.35
2023-01-21T03:14:29.692Z,5.66
2023-01-21T03:17:07.056Z,4.45
2023-01-21T03:19:45.969Z,3.74
2023-01-21T03:22:16.790Z,3.65
2023-01-21T03:24:48.017Z,4.81
2023-01-21T03:27:18.842Z,5.83
2023-01-21T03:29:48.505Z,5.51
2023-01-21T03:36:43.247Z,3.31
2023-01-21T03:39:32.919Z,3.15
2023-01-21T03:42:01.015Z,4.43
2023-01-21T03:44:28.812Z,5.64
2023-01-21T03:47:31.447Z,6.16
2023-01-21T03:50:09.289Z,5.25
2023-01-21T03:52:41.065Z,4.30
2023-01-21T03:55:09.947Z,3.62
2023-01-21T03:57:38.173Z,3.14
2023-01-21T04:00:07.652Z,3.14
2023-01-21T04:02:35.383Z,4.40
2023-01-21T04:05:03.826Z,5.46
2023-01-21T04:07:31.712Z,5.23
2023-01-21T04:09:59.452Z,4.36
2023-01-21T04:12:27.182Z,3.69
2023-01-21T04:14:54.936Z,3.30
2023-01-21T04:17:22.658Z,4.25
2023-01-21T04:19:50.400Z,5.49
2023-01-21T04:22:18.400Z,6.15
2023-01-21T04:24:46.652Z,5.42
2023-01-21T04:27:14.573Z,4.51
2023-01-21T04:29:42.332Z,3.86
2023-01-21T04:32:10.062Z,3.38
2023-01-21T04:34:37.792Z,3.28
2023-01-21T04:37:05.478Z,4.42
2023-01-21T04:39:33.265Z,5.72
2023-01-21T04:42:01.035Z,6.29
2023-01-21T04:44:28.805Z,5.55
2023-01-21T04:46:56.559Z,4.65
2023-01-21T04:49:24.434Z,3.99
2023-01-21T04:51:52.189Z,3.55
2023-01-21T04:54:19.938Z,4.21
2023-01-21T04:56:47.728Z,5.43
2023-01-21T04:59:15.416Z,5.56
2023-01-21T05:01:43.227Z,4.72
2023-01-21T05:04:10.943Z,3.99
2023-01-21T05:06:38.689Z,3.59
2023-01-21T05:09:06.526Z,4.45
2023-01-21T05:11:34.341Z,5.61
2023-01-21T05:14:02.082Z,6.43
2023-01-21T05:16:29.915Z,6.53
2023-01-21T05:18:57.789Z,5.65
2023-01-21T05:21:25.680Z,4.76
2023-01-21T05:23:54.609Z,4.12
2023-01-21T05:26:22.439Z,3.63
2023-01-21T05:28:50.242Z,3.58
2023-01-21T05:31:18.197Z,4.68
2023-01-21T05:33:47.248Z,5.72
2023-01-21T05:36:15.115Z,5.80
2023-01-21T05:38:42.854Z,5.03
2023-01-21T05:41:10.608Z,4.32
2023-01-21T05:43:38.724Z,3.78
2023-01-21T05:46:06.814Z,3.50
2023-01-21T05:48:34.616Z,4.22
2023-01-21T05:51:02.414Z,5.24
2023-01-21T05:53:30.137Z,5.94
2023-01-21T05:55:57.980Z,5.90
2023-01-21T05:58:26.146Z,5.07
2023-01-21T06:00:54.551Z,4.22
2023-01-21T06:03:22.379Z,3.94
2023-01-21T06:05:50.873Z,4.98
2023-01-21T06:08:18.789Z,5.77
2023-01-21T06:10:46.699Z,6.38
2023-01-21T06:13:15.456Z,6.17
2023-01-21T06:15:43.354Z,5.28
2023-01-21T06:18:11.164Z,4.52
2023-01-21T06:20:38.894Z,4.10
2023-01-21T06:23:06.631Z,5.12
2023-01-21T06:25:34.542Z,6.32
2023-01-21T06:28:02.533Z,6.09
2023-01-21T06:30:30.285Z,5.20
2023-01-21T06:32:58.112Z,4.43
2023-01-21T06:35:25.961Z,4.02
2023-01-21T06:37:53.708Z,4.95
2023-01-21T06:40:21.517Z,6.05
2023-01-21T06:42:49.859Z,6.49
2023-01-21T06:45:18.086Z,5.64
2023-01-21T06:47:46.187Z,4.85
2023-01-21T06:50:16.661Z,4.31
2023-01-21T06:52:46.429Z,5.13
2023-01-21T06:55:15.325Z,6.05
2023-01-21T06:57:43.974Z,5.81
2023-01-21T07:00:13.163Z,4.93
2023-01-21T07:02:41.018Z,4.31
2023-01-21T07:05:09.114Z,5.13
2023-01-21T07:07:37.095Z,6.33
2023-01-21T07:10:05.232Z,6.74
2023-01-21T07:12:33.215Z,5.95
2023-01-21T07:15:00.960Z,5.05
2023-01-21T07:17:28.705Z,4.45
2023-01-21T07:19:56.487Z,5.15
2023-01-21T07:22:24.256Z,6.15
2023-01-21T07:24:52.252Z,6.77
2023-01-21T07:27:20.106Z,6.40
2023-01-21T07:29:47.950Z,5.45
2023-01-21T07:32:15.755Z,4.66
2023-01-21T07:34:43.507Z,4.55
2023-01-21T07:37:11.267Z,5.54
2023-01-21T07:39:39.008Z,6.41
2023-01-21T07:42:06.839Z,6.32
2023-01-21T07:44:34.706Z,5.41
2023-01-21T07:47:02.608Z,4.66
2023-01-21T08:04:30.159Z,6.46
2023-01-21T08:25:49.415Z,7.26
2023-01-21T08:30:09.202Z,6.10
2023-01-21T08:33:41.494Z,5.01
2023-01-21T08:36:22.431Z,6.24
2023-01-21T08:39:23.925Z,7.38
2023-01-21T08:43:45.331Z,7.60
2023-01-21T08:50:29.876Z,5.49
2023-01-21T08:53:23.514Z,6.53
2023-01-21T08:59:51.461Z,5.91
2023-01-21T14:41:23.568Z,6.32
2023-01-21T14:56:21.406Z,7.29
2023-01-21T15:03:16.365Z,5.77
2023-01-21T15:13:19.697Z,5.65
2023-01-21T15:16:35.924Z,7.55
2023-01-21T15:19:38.121Z,8.93
2023-01-21T15:22:54.094Z,8.49
2023-01-21T15:25:37.391Z,7.15
2023-01-21T15:28:39.963Z,6.53
2023-01-21T15:31:11.040Z,5.98
2023-01-21T15:33:44.071Z,5.63
2023-01-21T15:36:20.364Z,5.34
2023-01-21T15:38:49.752Z,5.09
2023-01-21T15:41:36.413Z,5.22
2023-01-21T15:44:18.397Z,6.81
2023-01-21T15:46:58.100Z,8.35
2023-01-21T15:49:47.314Z,8.97
2023-01-21T15:52:24.072Z,8.04
2023-01-21T15:55:00.603Z,7.18
2023-01-21T15:57:47.387Z,6.62
2023-01-21T16:00:24.207Z,6.22
2023-01-21T16:02:56.322Z,5.94
2023-01-21T16:05:39.642Z,5.68
2023-01-21T16:08:26.076Z,5.42
2023-01-21T16:11:15.775Z,5.18
2023-01-21T16:13:51.000Z,6.17
2023-01-21T16:16:27.677Z,7.66
2023-01-21T16:19:05.388Z,8.73
2023-01-21T16:21:35.699Z,9.14
2023-01-21T16:24:06.920Z,8.42
2023-01-21T16:26:34.626Z,7.64
2023-01-21T16:29:02.627Z,7.09
2023-01-21T16:31:30.616Z,6.65
2023-01-21T16:33:58.496Z,6.29
2023-01-21T16:36:26.301Z,5.99
2023-01-21T16:38:54.342Z,5.73
2023-01-21T16:41:24.357Z,5.76
2023-01-21T16:44:01.523Z,6.94
2023-01-21T16:46:36.317Z,8.12
2023-01-21T16:49:11.897Z,9.03
2023-01-21T16:51:51.088Z,9.33
2023-01-21T16:54:30.412Z,8.44
2023-01-21T16:57:00.740Z,7.56
2023-01-21T16:59:38.513Z,6.95
2023-01-21T17:02:20.256Z,6.48
2023-01-21T17:04:49.066Z,6.05
2023-01-21T17:07:20.911Z,5.71
2023-01-21T17:10:13.216Z,5.42
2023-01-21T17:12:41.232Z,5.68
2023-01-21T17:15:29.062Z,6.97
2023-01-21T17:17:59.275Z,8.19
2023-01-21T17:20:38.033Z,8.61
2023-01-21T17:23:15.623Z,7.94
2023-01-21T17:25:43.519Z,7.20
2023-01-21T17:28:44.960Z,6.67
2023-01-21T17:31:15.955Z,6.20
2023-01-21T17:33:43.983Z,5.89
2023-01-21T17:36:13.894Z,5.63
2023-01-21T17:38:44.702Z,5.38
2023-01-21T17:41:27.867Z,5.56
2023-01-21T17:43:56.225Z,6.78
2023-01-21T17:46:24.812Z,7.75
2023-01-21T17:48:59.383Z,8.57
2023-01-21T17:51:29.766Z,8.98
2023-01-21T17:54:00.937Z,8.27
2023-01-21T17:56:34.891Z,7.45
2023-01-21T17:59:03.152Z,6.81
2023-01-21T18:01:31.687Z,6.32
2023-01-21T18:03:59.821Z,5.95
2023-01-21T18:06:28.864Z,5.64
2023-01-21T18:09:05.706Z,5.51
2023-01-21T18:11:33.764Z,6.43
2023-01-21T18:14:01.680Z,7.50
2023-01-21T18:16:30.077Z,8.57
2023-01-21T18:18:57.974Z,9.14
2023-01-21T18:21:25.711Z,8.49
2023-01-21T18:23:53.770Z,7.74
2023-01-21T18:26:33.375Z,7.18
2023-01-21T18:29:01.323Z,6.72
2023-01-21T18:31:29.932Z,6.38
2023-01-21T18:33:57.800Z,6.09
2023-01-21T18:36:25.613Z,5.86
2023-01-21T18:38:53.489Z,5.66
2023-01-21T18:41:21.273Z,5.68
2023-01-21T18:43:49.080Z,6.71
2023-01-21T18:46:19.964Z,7.88
2023-01-21T18:48:48.464Z,8.79
2023-01-21T18:51:16.676Z,8.95
2023-01-21T18:53:44.736Z,8.17
2023-01-21T18:56:13.917Z,7.45
2023-01-21T18:58:42.229Z,6.89
2023-01-21T19:01:22.546Z,6.49
2023-01-21T19:03:53.593Z,6.13
2023-01-21T19:06:23.314Z,5.86
2023-01-21T19:08:51.369Z,5.88
2023-01-21T19:11:19.270Z,7.02
2023-01-21T19:13:47.097Z,8.18
2023-01-21T19:16:18.845Z,9.10
2023-01-21T19:18:46.907Z,9.44
2023-01-21T19:21:15.177Z,8.64
2023-01-21T19:23:43.129Z,7.80
2023-01-21T19:26:13.771Z,7.15
2023-01-21T19:28:42.216Z,6.66
2023-01-21T19:31:10.471Z,6.27
2023-01-21T19:33:39.857Z,5.98
2023-01-21T19:36:15.089Z,6.00
2023-01-21T19:38:49.899Z,7.31
2023-01-21T19:41:17.970Z,8.72
2023-01-21T19:43:46.263Z,9.30
2023-01-21T19:46:14.276Z,8.66
2023-01-21T19:48:42.308Z,7.87
2023-01-21T19:51:11.455Z,7.28
2023-01-21T19:53:39.341Z,6.84
2023-01-21T19:56:14.513Z,6.48
2023-01-21T19:58:42.408Z,6.17
2023-01-21T20:01:11.010Z,5.93
2023-01-21T20:03:43.562Z,5.73
2023-01-21T20:06:19.013Z,5.84
2023-01-21T20:08:46.935Z,6.91
2023-01-21T20:11:16.478Z,7.96
2023-01-21T20:13:44.263Z,8.87
2023-01-21T20:16:15.909Z,9.24
2023-01-21T20:18:43.920Z,8.57
2023-01-21T20:21:12.316Z,7.81
2023-01-21T20:23:40.075Z,7.26
2023-01-21T20:26:14.050Z,6.85
2023-01-21T20:28:46.812Z,6.47
2023-01-21T20:31:14.695Z,6.16
2023-01-21T20:33:44.070Z,5.91
2023-01-21T20:36:20.270Z,5.92
2023-01-21T20:38:48.641Z,7.14
2023-01-21T20:41:16.744Z,8.31
2023-01-21T20:43:44.618Z,9.02
2023-01-21T20:46:16.956Z,8.52
2023-01-21T20:48:44.819Z,7.76
2023-01-21T20:51:12.828Z,7.21
2023-01-21T20:53:40.808Z,6.84
2023-01-21T20:56:27.843Z,6.54
2023-01-21T20:58:55.781Z,6.26
2023-01-21T21:01:25.226Z,6.04
2023-01-21T21:03:53.343Z,6.07
2023-01-21T21:06:23.179Z,7.20
2023-01-21T21:08:51.441Z,8.34
2023-01-21T21:11:19.908Z,9.23
2023-01-21T21:13:51.645Z,9.69
2023-01-21T21:16:21.541Z,9.03
2023-01-21T21:18:49.862Z,8.23
2023-01-21T21:21:19.069Z,7.67
2023-01-21T21:23:47.979Z,7.25
2023-01-21T21:26:22.132Z,6.90
2023-01-21T21:28:51.023Z,6.58
2023-01-21T21:31:18.915Z,6.33
2023-01-21T21:33:47.087Z,6.35
2023-01-21T21:36:17.141Z,7.59
2023-01-21T21:38:45.547Z,8.90
2023-01-21T21:41:37.705Z,9.40
2023-01-21T21:44:06.945Z,8.68
2023-01-21T21:46:53.455Z,7.97
2023-01-21T21:49:21.892Z,7.41
2023-01-21T21:51:49.692Z,7.03
2023-01-21T21:54:18.600Z,6.71
2023-01-21T21:56:47.183Z,6.43
2023-01-21T21:59:15.506Z,6.20
2023-01-21T22:01:44.090Z,6.00
2023-01-21T22:04:12.159Z,6.09
2023-01-21T22:06:39.948Z,7.33
2023-01-21T22:09:08.213Z,8.65
2023-01-21T22:11:36.137Z,9.33
2023-01-21T22:14:04.499Z,8.77
2023-01-21T22:16:32.942Z,8.02
2023-01-21T22:19:00.998Z,7.45
2023-01-21T22:21:32.672Z,7.03
2023-01-21T22:24:01.728Z,6.66
2023-01-21T22:26:30.005Z,6.37
2023-01-21T22:28:58.141Z,6.15
2023-01-21T22:31:30.976Z,6.25
2023-01-21T22:34:00.301Z,7.62
2023-01-21T22:36:29.977Z,8.94
2023-01-21T22:38:58.106Z,9.53
2023-01-21T22:41:26.014Z,8.90
2023-01-21T22:43:54.097Z,8.12
2023-01-21T22:46:24.924Z,7.55
2023-01-21T22:48:53.864Z,7.12
2023-01-21T22:51:23.025Z,6.75
2023-01-21T22:53:52.558Z,6.44
2023-01-21T22:56:31.530Z,6.18
2023-01-21T22:59:03.570Z,5.93
2023-01-21T23:01:31.853Z,5.97
2023-01-21T23:04:00.386Z,7.14
2023-01-21T23:06:28.497Z,8.40
2023-01-21T23:08:56.321Z,9.39
2023-01-21T23:11:24.071Z,9.56
2023-01-21T23:13:53.344Z,8.71
2023-01-21T23:16:21.717Z,7.90
2023-01-21T23:18:49.700Z,7.32
2023-01-21T23:21:22.230Z,6.90
2023-01-21T23:23:50.522Z,6.57
2023-01-21T23:26:22.717Z,6.32
2023-01-21T23:28:53.626Z,6.10
2023-01-21T23:31:21.989Z,5.90
2023-01-21T23:33:54.303Z,5.96
2023-01-21T23:36:22.606Z,7.04
2023-01-21T23:38:50.579Z,8.07
2023-01-21T23:41:19.807Z,8.98
2023-01-21T23:43:47.552Z,9.62
2023-01-21T23:46:19.411Z,9.05
2023-01-21T23:48:47.519Z,8.22
2023-01-21T23:51:16.062Z,7.65
2023-01-21T23:53:44.741Z,7.22
2023-01-21T23:56:14.146Z,6.89
2023-01-21T23:58:42.328Z,6.60
